createdAt,value
2023-02-11T00:01:31.560Z,-4.39
2023-02-11T00:03:03.368Z,-4.39
2023-02-11T00:04:34.946Z,-4.38
2023-02-11T00:06:11.124Z,-4.40
2023-02-11T00:07:42.754Z,-4.39
2023-02-11T00:09:14.343Z,-4.42
2023-02-11T00:10:46.530Z,-4.45
2023-02-11T00:12:19.677Z,-4.48
2023-02-11T00:13:52.291Z,-4.54
2023-02-11T00:15:23.983Z,-4.47
2023-02-11T00:16:55.534Z,-4.51
2023-02-11T00:18:27.838Z,-4.49
2023-02-11T00:19:59.468Z,-4.55
2023-02-11T00:21:31.045Z,-4.58
2023-02-11T00:23:02.769Z,-4.64
2023-02-11T00:24:35.667Z,-4.68
2023-02-11T00:26:15.645Z,-4.68
2023-02-11T00:27:47.623Z,-4.70
2023-02-11T00:29:19.180Z,-4.66
2023-02-11T00:31:01.693Z,-4.72
2023-02-11T00:32:34.255Z,-4.72
2023-02-11T00:34:05.969Z,-4.67
2023-02-11T00:35:38.670Z,-4.56
2023-02-11T00:37:13.646Z,-4.68
2023-02-11T00:38:47.731Z,-4.77
2023-02-11T00:40:19.631Z,-4.82
2023-02-11T00:41:51.324Z,-4.82
2023-02-11T00:43:23.291Z,-4.88
2023-02-11T00:44:55.568Z,-4.88
2023-02-11T00:46:27.401Z,-4.82
2023-02-11T00:47:59.065Z,-4.81
2023-02-11T00:49:33.001Z,-4.76
2023-02-11T00:51:05.366Z,-4.79
2023-02-11T00:52:37.014Z,-4.83
2023-02-11T00:54:08.667Z,-4.84
2023-02-11T00:55:40.504Z,-4.88
2023-02-11T00:57:12.177Z,-4.86
2023-02-11T00:58:43.912Z,-4.86
2023-02-11T01:00:15.975Z,-4.81
2023-02-11T01:01:49.274Z,-4.68
2023-02-11T01:03:21.008Z,-4.68
2023-02-11T01:04:53.005Z,-4.70
2023-02-11T01:06:24.894Z,-4.80
2023-02-11T01:07:56.602Z,-4.82
2023-02-11T01:09:28.502Z,-4.85
2023-02-11T01:11:03.074Z,-4.81
2023-02-11T01:12:36.519Z,-4.73
2023-02-11T01:14:09.184Z,-4.60
2023-02-11T01:15:40.949Z,-4.47
2023-02-11T01:17:12.903Z,-4.58
2023-02-11T01:18:44.789Z,-4.63
2023-02-11T01:20:22.493Z,-4.68
2023-02-11T01:21:54.151Z,-4.72
2023-02-11T01:23:26.991Z,-4.75
2023-02-11T01:24:58.591Z,-4.65
2023-02-11T01:26:30.377Z,-4.56
2023-02-11T01:28:03.303Z,-4.46
2023-02-11T01:29:35.811Z,-4.45
2023-02-11T01:31:07.535Z,-4.47
2023-02-11T01:32:39.917Z,-4.52
2023-02-11T01:34:13.851Z,-4.56
2023-02-11T01:35:46.753Z,-4.62
2023-02-11T01:37:18.550Z,-4.72
2023-02-11T01:38:50.645Z,-4.80
2023-02-11T01:40:25.163Z,-4.82
2023-02-11T01:41:56.824Z,-4.74
2023-02-11T01:43:32.851Z,-4.63
2023-02-11T01:45:39.556Z,-4.65
2023-02-11T01:47:11.688Z,-4.59
2023-02-11T01:48:47.825Z,-4.67
2023-02-11T01:50:19.574Z,-4.76
2023-02-11T01:51:58.156Z,-4.85
2023-02-11T01:53:50.730Z,-4.86
2023-02-11T01:55:41.028Z,-4.83
2023-02-11T01:57:22.116Z,-4.89
2023-02-11T01:58:59.601Z,-4.91
2023-02-11T02:00:39.083Z,-4.75
2023-02-11T02:02:13.746Z,-4.72
2023-02-11T02:03:48.549Z,-4.76
2023-02-11T02:05:20.309Z,-4.81
2023-02-11T02:06:57.974Z,-4.85
2023-02-11T02:08:44.825Z,-4.91
2023-02-11T02:10:21.007Z,-4.94
2023-02-11T02:11:52.741Z,-4.95
2023-02-11T02:13:24.894Z,-4.94
2023-02-11T02:15:19.759Z,-4.99
2023-02-11T02:16:51.384Z,-5.02
2023-02-11T02:18:41.169Z,-4.97
2023-02-11T02:20:27.370Z,-4.97
2023-02-11T02:22:36.319Z,-5.00
2023-02-11T02:24:31.610Z,-5.00
2023-02-11T02:26:26.655Z,-4.93
2023-02-11T02:28:29.060Z,-4.89
2023-02-11T02:30:06.854Z,-4.94
2023-02-11T02:31:56.825Z,-5.03
2023-02-11T02:33:56.460Z,-5.11
2023-02-11T02:35:34.121Z,-5.12
2023-02-11T02:37:16.423Z,-5.11
2023-02-11T02:39:09.118Z,-5.11
2023-02-11T02:40:53.213Z,-5.13
2023-02-11T02:42:25.861Z,-5.17
2023-02-11T02:43:57.824Z,-5.15
2023-02-11T02:45:29.467Z,-5.14
2023-02-11T02:47:01.143Z,-5.14
2023-02-11T02:48:35.808Z,-5.12
2023-02-11T02:50:09.723Z,-5.06
2023-02-11T02:51:47.746Z,-5.05
2023-02-11T02:53:53.261Z,-5.06
2023-02-11T02:56:12.811Z,-4.99
2023-02-11T02:57:56.208Z,-5.03
2023-02-11T02:59:33.947Z,-5.02
2023-02-11T03:01:30.221Z,-5.00
2023-02-11T03:03:23.409Z,-5.05
2023-02-11T03:05:10.343Z,-5.01
2023-02-11T03:07:06.888Z,-5.05
2023-02-11T03:08:46.833Z,-5.08
2023-02-11T03:10:36.220Z,-4.95
2023-02-11T03:12:10.427Z,-4.89
2023-02-11T03:13:44.358Z,-5.01
2023-02-11T03:15:18.966Z,-5.04
2023-02-11T03:16:53.145Z,-5.08
2023-02-11T03:18:28.957Z,-5.12
2023-02-11T03:20:02.857Z,-5.11
2023-02-11T03:21:37.903Z,-5.10
2023-02-11T03:23:21.982Z,-5.13
2023-02-11T03:24:55.959Z,-5.17
2023-02-11T03:26:27.544Z,-5.22
2023-02-11T03:27:59.160Z,-5.21
2023-02-11T03:29:33.628Z,-5.24
2023-02-11T03:31:11.403Z,-5.23
2023-02-11T03:32:51.414Z,-5.07
2023-02-11T03:34:44.861Z,-5.08
2023-02-11T03:36:23.977Z,-5.11
2023-02-11T03:38:00.573Z,-5.14
2023-02-11T03:39:39.599Z,-5.15
2023-02-11T03:41:14.055Z,-5.05
2023-02-11T03:42:50.969Z,-5.04
2023-02-11T03:44:26.461Z,-5.09
2023-02-11T03:45:59.593Z,-5.00
2023-02-11T03:47:35.321Z,-5.04
2023-02-11T03:49:12.034Z,-5.04
2023-02-11T03:50:46.646Z,-4.99
2023-02-11T03:52:19.269Z,-4.97
2023-02-11T03:53:54.700Z,-5.04
2023-02-11T03:55:28.586Z,-5.08
2023-02-11T03:57:02.249Z,-5.08
2023-02-11T03:58:33.985Z,-5.06
2023-02-11T04:00:07.058Z,-5.12
2023-02-11T04:01:43.383Z,-5.14
2023-02-11T04:03:15.132Z,-5.12
2023-02-11T04:04:47.514Z,-5.13
2023-02-11T04:06:19.187Z,-5.15
2023-02-11T04:07:50.890Z,-5.16
2023-02-11T04:09:22.475Z,-5.09
2023-02-11T04:10:54.119Z,-5.06
2023-02-11T04:12:26.145Z,-5.06
2023-02-11T04:13:57.801Z,-5.09
2023-02-11T04:15:29.558Z,-5.08
2023-02-11T04:17:01.287Z,-5.04
2023-02-11T04:18:32.894Z,-5.02
2023-02-11T04:20:05.134Z,-5.01
2023-02-11T04:21:36.719Z,-4.98
2023-02-11T04:23:08.365Z,-4.95
2023-02-11T04:24:39.926Z,-4.97
2023-02-11T04:26:11.655Z,-5.03
2023-02-11T04:27:43.256Z,-5.08
2023-02-11T04:29:14.864Z,-5.07
2023-02-11T04:30:46.524Z,-4.90
2023-02-11T04:32:18.115Z,-4.90
2023-02-11T04:33:49.682Z,-4.81
2023-02-11T04:35:21.574Z,-4.86
2023-02-11T04:36:53.224Z,-4.88
2023-02-11T04:38:24.835Z,-4.89
2023-02-11T04:39:56.568Z,-4.86
2023-02-11T04:41:28.188Z,-4.81
2023-02-11T04:42:59.830Z,-4.70
2023-02-11T04:44:31.551Z,-4.73
2023-02-11T04:46:03.177Z,-4.66
2023-02-11T04:47:35.111Z,-4.69
2023-02-11T04:49:06.739Z,-4.74
2023-02-11T04:50:38.349Z,-4.78
2023-02-11T04:52:10.363Z,-4.59
2023-02-11T04:53:45.175Z,-4.62
2023-02-11T04:55:16.891Z,-4.61
2023-02-11T04:56:49.704Z,-4.59
2023-02-11T04:58:21.427Z,-4.53
2023-02-11T04:59:53.000Z,-4.47
2023-02-11T05:01:24.646Z,-4.44
2023-02-11T05:02:56.218Z,-4.37
2023-02-11T05:04:27.945Z,-4.34
2023-02-11T05:05:59.599Z,-4.35
2023-02-11T05:07:31.169Z,-4.20
2023-02-11T05:09:02.770Z,-4.21
2023-02-11T05:10:34.832Z,-4.21
2023-02-11T05:12:06.648Z,-4.24
2023-02-11T05:13:38.314Z,-4.20
2023-02-11T05:15:10.080Z,-4.19
2023-02-11T05:16:41.670Z,-4.15
2023-02-11T05:18:14.932Z,-4.12
2023-02-11T05:19:46.588Z,-4.14
2023-02-11T05:21:19.519Z,-4.11
2023-02-11T05:22:51.082Z,-4.07
2023-02-11T05:24:22.632Z,-4.05
2023-02-11T05:25:54.188Z,-4.01
2023-02-11T05:27:25.825Z,-3.95
2023-02-11T05:28:57.381Z,-3.91
2023-02-11T05:30:29.416Z,-3.92
2023-02-11T05:32:01.050Z,-3.74
2023-02-11T05:33:33.240Z,-3.82
2023-02-11T05:35:05.257Z,-3.77
2023-02-11T05:36:36.910Z,-3.78
2023-02-11T05:38:08.557Z,-3.75
2023-02-11T05:39:40.199Z,-3.77
2023-02-11T05:41:12.411Z,-3.81
2023-02-11T05:42:44.045Z,-3.81
2023-02-11T05:44:15.636Z,-3.82
2023-02-11T05:45:47.277Z,-3.83
2023-02-11T05:47:18.859Z,-3.80
2023-02-11T05:48:51.279Z,-3.74
2023-02-11T05:50:22.884Z,-3.72
2023-02-11T05:51:57.379Z,-3.73
2023-02-11T05:53:29.037Z,-3.69
2023-02-11T05:55:00.574Z,-3.68
2023-02-11T05:56:32.176Z,-3.60
2023-02-11T05:58:04.337Z,-3.58
2023-02-11T05:59:35.958Z,-3.57
2023-02-11T06:01:07.492Z,-3.53
2023-02-11T06:02:39.323Z,-3.48
2023-02-11T06:04:11.089Z,-3.46
2023-02-11T06:05:43.819Z,-3.46
2023-02-11T06:07:15.456Z,-3.48
2023-02-11T06:08:47.109Z,-3.52
2023-02-11T06:10:19.690Z,-3.47
2023-02-11T06:11:51.341Z,-3.46
2023-02-11T06:13:22.911Z,-3.42
2023-02-11T06:14:54.458Z,-3.26
2023-02-11T06:16:26.086Z,-3.32
2023-02-11T06:17:57.694Z,-3.33
2023-02-11T06:19:29.295Z,-3.34
2023-02-11T06:21:01.216Z,-3.34
2023-02-11T06:22:34.055Z,-3.37
2023-02-11T06:24:06.997Z,-3.36
2023-02-11T06:25:38.699Z,-3.35
2023-02-11T06:27:10.230Z,-3.34
2023-02-11T06:28:42.131Z,-3.32
2023-02-11T06:30:14.386Z,-3.27
2023-02-11T06:31:46.082Z,-3.22
2023-02-11T06:33:17.732Z,-3.15
2023-02-11T06:34:49.322Z,-3.15
2023-02-11T06:36:22.386Z,-3.12
2023-02-11T06:37:54.585Z,-3.08
2023-02-11T06:39:26.166Z,-3.06
2023-02-11T06:40:57.696Z,-3.03
2023-02-11T06:42:29.222Z,-2.89
2023-02-11T06:44:00.946Z,-2.91
2023-02-11T06:45:32.516Z,-2.94
2023-02-11T06:47:04.398Z,-2.94
2023-02-11T06:48:36.182Z,-2.94
2023-02-11T06:50:12.617Z,-2.89
2023-02-11T06:51:44.149Z,-2.82
2023-02-11T06:53:15.750Z,-2.82
2023-02-11T06:54:47.319Z,-2.80
2023-02-11T06:56:22.042Z,-2.85
2023-02-11T06:57:53.682Z,-2.76
2023-02-11T06:59:25.304Z,-2.74
2023-02-11T07:00:56.855Z,-2.58
2023-02-11T07:02:28.497Z,-2.62
2023-02-11T07:04:00.166Z,-2.63
2023-02-11T07:05:31.790Z,-2.65
2023-02-11T07:07:03.458Z,-2.65
2023-02-11T07:08:37.538Z,-2.51
2023-02-11T07:10:09.328Z,-2.55
2023-02-11T07:11:40.891Z,-2.56
2023-02-11T07:13:12.485Z,-2.53
2023-02-11T07:14:44.139Z,-2.60
2023-02-11T07:16:17.595Z,-2.56
2023-02-11T07:17:49.220Z,-2.57
2023-02-11T07:19:21.087Z,-2.62
2023-02-11T07:20:52.672Z,-2.61
2023-02-11T07:22:24.282Z,-2.66
2023-02-11T07:23:55.927Z,-2.62
2023-02-11T07:25:27.552Z,-2.53
2023-02-11T07:26:59.136Z,-2.50
2023-02-11T07:28:31.385Z,-2.48
2023-02-11T07:30:06.961Z,-2.47
2023-02-11T07:31:39.074Z,-2.44
2023-02-11T07:33:10.752Z,-2.41
2023-02-11T07:34:42.408Z,-2.38
2023-02-11T07:36:15.926Z,-2.30
2023-02-11T07:37:47.518Z,-2.25
2023-02-11T07:39:20.257Z,-2.23
2023-02-11T07:40:51.788Z,-2.19
2023-02-11T07:42:23.409Z,-2.07
2023-02-11T07:43:55.732Z,-2.01
2023-02-11T07:45:27.343Z,-1.95
2023-02-11T07:46:59.805Z,-1.91
2023-02-11T07:48:31.650Z,-1.96
2023-02-11T07:50:03.428Z,-1.97
2023-02-11T07:51:35.011Z,-1.89
2023-02-11T07:53:06.558Z,-1.90
2023-02-11T07:54:38.254Z,-1.94
2023-02-11T07:56:11.083Z,-1.85
2023-02-11T07:57:42.695Z,-1.81
2023-02-11T07:59:14.335Z,-1.65
2023-02-11T08:00:46.060Z,-1.50
2023-02-11T08:02:17.712Z,-1.33
2023-02-11T08:03:49.629Z,-1.14
2023-02-11T08:05:21.198Z,-0.84
2023-02-11T08:06:56.499Z,-0.62
2023-02-11T08:08:29.509Z,-0.41
2023-02-11T08:10:01.100Z,-0.28
2023-02-11T08:11:32.903Z,-0.23
2023-02-11T08:13:04.563Z,-0.20
2023-02-11T08:14:36.357Z,-0.10
2023-02-11T08:16:08.879Z,0.17
2023-02-11T08:17:40.508Z,0.26
2023-02-11T08:19:15.185Z,0.39
2023-02-11T08:20:46.831Z,0.16
2023-02-11T08:22:18.455Z,0.08
2023-02-11T08:23:50.515Z,-0.07
2023-02-11T08:25:22.226Z,-0.10
2023-02-11T08:26:53.888Z,0.02
2023-02-11T08:28:25.655Z,0.16
2023-02-11T08:29:59.507Z,0.28
2023-02-11T08:31:35.669Z,0.39
2023-02-11T08:33:07.281Z,0.30
2023-02-11T08:34:38.947Z,0.27
2023-02-11T08:36:19.819Z,0.29
2023-02-11T08:37:52.587Z,0.30
2023-02-11T08:39:24.346Z,0.37
2023-02-11T08:40:56.021Z,0.27
2023-02-11T08:42:27.684Z,0.25
2023-02-11T08:43:59.447Z,0.37
2023-02-11T08:45:31.055Z,0.49
2023-02-11T08:47:02.762Z,0.62
2023-02-11T08:48:34.574Z,0.62
2023-02-11T08:50:06.866Z,0.84
2023-02-11T08:51:38.510Z,1.09
2023-02-11T08:53:10.087Z,1.05
2023-02-11T08:54:41.733Z,1.01
2023-02-11T08:56:14.928Z,1.23
2023-02-11T08:57:46.554Z,1.57
2023-02-11T08:59:18.189Z,1.59
2023-02-11T09:00:50.583Z,1.91
2023-02-11T09:02:22.440Z,2.13
2023-02-11T09:03:54.354Z,1.99
2023-02-11T09:05:27.560Z,2.23
2023-02-11T09:06:59.158Z,2.56
2023-02-11T09:08:30.816Z,2.72
2023-02-11T09:10:02.530Z,2.51
2023-02-11T09:11:35.636Z,2.58
2023-02-11T09:13:08.342Z,2.47
2023-02-11T09:14:41.337Z,2.37
2023-02-11T09:16:22.355Z,2.50
2023-02-11T09:17:54.115Z,2.20
2023-02-11T09:19:25.789Z,1.73
2023-02-11T09:21:05.520Z,1.77
2023-02-11T09:22:37.159Z,1.62
2023-02-11T09:24:08.786Z,1.57
2023-02-11T09:25:41.242Z,1.73
2023-02-11T09:27:12.837Z,2.06
2023-02-11T09:28:45.020Z,2.47
2023-02-11T09:30:16.989Z,2.51
2023-02-11T09:31:48.974Z,2.55
2023-02-11T09:33:20.757Z,2.63
2023-02-11T09:34:52.474Z,2.58
2023-02-11T09:36:26.273Z,2.44
2023-02-11T09:37:57.846Z,2.46
2023-02-11T09:39:29.914Z,2.45
2023-02-11T09:41:04.062Z,2.40
2023-02-11T09:42:46.599Z,2.42
2023-02-11T09:44:24.995Z,2.52
2023-02-11T09:45:57.533Z,2.33
2023-02-11T09:47:33.075Z,2.62
2023-02-11T09:49:06.241Z,2.65
2023-02-11T09:51:02.634Z,2.91
2023-02-11T09:53:02.027Z,2.95
2023-02-11T09:54:39.134Z,3.20
2023-02-11T09:56:14.193Z,3.24
2023-02-11T09:57:45.822Z,3.37
2023-02-11T09:59:18.661Z,3.53
2023-02-11T10:01:24.043Z,3.28
2023-02-11T10:03:19.677Z,3.54
2023-02-11T10:05:16.033Z,3.83
2023-02-11T10:06:50.420Z,4.16
2023-02-11T10:08:27.912Z,4.19
2023-02-11T10:10:14.424Z,4.47
2023-02-11T10:12:01.309Z,4.51
2023-02-11T10:13:42.128Z,4.41
2023-02-11T10:15:26.082Z,4.70
2023-02-11T10:17:31.747Z,4.67
2023-02-11T10:19:11.301Z,4.19
2023-02-11T10:20:57.948Z,4.39
2023-02-11T10:22:47.171Z,4.56
2023-02-11T10:24:19.941Z,4.91
2023-02-11T10:25:54.621Z,5.32
2023-02-11T10:27:35.464Z,6.28
2023-02-11T10:29:28.998Z,6.45
2023-02-11T10:31:09.660Z,6.76
2023-02-11T10:33:14.909Z,6.53
2023-02-11T10:34:47.120Z,6.31
2023-02-11T10:36:23.835Z,6.74
2023-02-11T10:37:56.196Z,6.95
2023-02-11T10:39:28.495Z,6.66
2023-02-11T10:41:00.251Z,6.44
2023-02-11T10:42:31.870Z,6.35
2023-02-11T10:44:06.999Z,6.40
2023-02-11T10:45:43.166Z,6.45
2023-02-11T10:47:22.025Z,6.68
2023-02-11T10:48:54.305Z,6.78
2023-02-11T10:50:32.536Z,7.07
2023-02-11T10:52:27.926Z,6.56
2023-02-11T10:54:06.242Z,6.79
2023-02-11T10:55:37.889Z,6.65
2023-02-11T10:57:20.005Z,6.91
2023-02-11T10:58:56.841Z,6.90
2023-02-11T11:00:40.593Z,6.77
2023-02-11T11:02:32.095Z,7.02
2023-02-11T11:04:03.918Z,6.48
2023-02-11T11:05:45.638Z,7.02
2023-02-11T11:07:23.017Z,6.53
2023-02-11T11:08:54.799Z,6.86
2023-02-11T11:10:45.972Z,6.88
2023-02-11T11:12:36.602Z,6.72
2023-02-11T11:14:20.409Z,6.88
2023-02-11T11:16:13.998Z,6.96
2023-02-11T11:17:46.176Z,7.07
2023-02-11T11:19:23.592Z,6.79
2023-02-11T11:21:13.027Z,6.85
2023-02-11T11:22:50.688Z,6.91
2023-02-11T11:24:39.070Z,7.08
2023-02-11T11:26:12.428Z,6.91
2023-02-11T11:27:49.850Z,7.78
2023-02-11T11:29:33.345Z,7.77
2023-02-11T11:31:13.034Z,7.69
2023-02-11T11:32:45.014Z,7.89
2023-02-11T11:34:31.768Z,7.72
2023-02-11T11:36:08.505Z,7.66
2023-02-11T11:37:40.120Z,7.77
2023-02-11T11:39:29.811Z,7.94
2023-02-11T11:41:17.467Z,8.50
2023-02-11T11:43:02.644Z,8.42
2023-02-11T11:44:37.080Z,8.69
2023-02-11T11:46:09.867Z,8.52
2023-02-11T11:47:45.269Z,8.62
2023-02-11T11:49:30.081Z,8.98
2023-02-11T11:51:05.290Z,8.75
2023-02-11T11:52:48.934Z,8.75
2023-02-11T11:54:20.750Z,8.87
2023-02-11T11:56:11.466Z,8.71
2023-02-11T11:57:43.361Z,8.82
2023-02-11T11:59:16.676Z,8.97
2023-02-11T12:00:48.478Z,8.91
2023-02-11T12:02:31.940Z,8.80
2023-02-11T12:04:23.174Z,8.39
2023-02-11T12:06:07.195Z,8.44
2023-02-11T12:08:03.293Z,8.64
2023-02-11T12:09:37.817Z,8.53
2023-02-11T12:11:37.536Z,8.56
2023-02-11T12:13:33.916Z,8.67
2023-02-11T12:15:15.345Z,8.58
2023-02-11T12:17:19.266Z,8.58
2023-02-11T12:19:02.791Z,8.50
2023-02-11T12:20:52.489Z,8.30
2023-02-11T12:22:46.802Z,8.07
2023-02-11T12:24:41.669Z,8.18
2023-02-11T12:26:42.603Z,7.99
2023-02-11T12:28:28.002Z,8.02
2023-02-11T12:30:02.625Z,8.26
2023-02-11T12:31:40.235Z,8.49
2023-02-11T12:33:33.235Z,8.64
2023-02-11T12:35:32.582Z,8.92
2023-02-11T12:37:22.984Z,8.88
2023-02-11T12:39:13.325Z,8.71
2023-02-11T12:40:53.902Z,8.59
2023-02-11T12:42:43.915Z,8.73
2023-02-11T12:44:38.778Z,8.70
2023-02-11T12:46:10.838Z,8.86
2023-02-11T12:48:13.458Z,8.82
2023-02-11T12:50:09.113Z,8.90
2023-02-11T12:51:58.937Z,8.92
2023-02-11T12:53:53.861Z,8.85
2023-02-11T12:55:26.774Z,8.86
2023-02-11T12:57:02.599Z,9.00
2023-02-11T12:58:44.892Z,8.88
2023-02-11T13:00:22.224Z,8.99
2023-02-11T13:01:56.006Z,9.11
2023-02-11T13:03:39.211Z,9.06
2023-02-11T13:05:26.264Z,9.36
2023-02-11T13:07:05.413Z,9.18
2023-02-11T13:08:49.521Z,9.01
2023-02-11T13:10:36.163Z,9.21
2023-02-11T13:12:31.478Z,9.43
2023-02-11T13:14:18.596Z,9.43
2023-02-11T13:15:54.185Z,9.32
2023-02-11T13:17:34.123Z,9.44
2023-02-11T13:19:32.024Z,9.48
2023-02-11T13:21:15.937Z,9.59
2023-02-11T13:23:04.432Z,9.64
2023-02-11T13:24:38.722Z,9.57
2023-02-11T13:26:19.613Z,9.53
2023-02-11T13:28:18.220Z,9.43
2023-02-11T13:29:56.337Z,9.29
2023-02-11T13:31:30.054Z,9.14
2023-02-11T13:33:04.880Z,9.05
2023-02-11T13:34:42.763Z,8.86
2023-02-11T13:36:40.897Z,8.57
2023-02-11T13:38:21.454Z,8.59
2023-02-11T13:40:22.186Z,8.47
2023-02-11T13:42:03.109Z,8.23
2023-02-11T13:43:36.386Z,8.08
2023-02-11T13:45:27.515Z,8.01
2023-02-11T13:47:05.284Z,7.96
2023-02-11T13:48:39.379Z,8.04
2023-02-11T13:50:23.855Z,7.93
2023-02-11T13:51:56.918Z,7.98
2023-02-11T13:53:29.777Z,7.95
2023-02-11T13:55:13.627Z,8.12
2023-02-11T13:56:46.320Z,8.07
2023-02-11T13:58:29.060Z,7.87
2023-02-11T14:00:07.266Z,7.91
2023-02-11T14:02:11.341Z,7.90
2023-02-11T14:04:37.378Z,7.69
2023-02-11T14:06:29.369Z,7.53
2023-02-11T14:08:28.660Z,7.65
2023-02-11T14:10:00.438Z,8.06
2023-02-11T14:11:41.026Z,8.13
2023-02-11T14:13:33.468Z,7.95
2023-02-11T14:15:11.124Z,8.09
2023-02-11T14:17:06.696Z,8.11
2023-02-11T14:18:44.272Z,7.94
2023-02-11T14:20:43.315Z,8.04
2023-02-11T14:22:16.575Z,8.12
2023-02-11T14:23:48.666Z,7.89
2023-02-11T14:25:25.473Z,7.78
2023-02-11T14:27:00.805Z,7.87
2023-02-11T14:28:34.490Z,7.92
2023-02-11T14:30:20.923Z,8.10
2023-02-11T14:32:05.404Z,7.87
2023-02-11T14:33:40.376Z,7.96
2023-02-11T14:35:21.068Z,7.84
2023-02-11T14:37:03.414Z,7.59
2023-02-11T14:38:56.087Z,7.52
2023-02-11T14:40:33.463Z,7.27
2023-02-11T14:42:05.959Z,7.22
2023-02-11T14:43:45.380Z,7.04
2023-02-11T14:45:21.305Z,7.10
2023-02-11T14:46:54.932Z,7.13
2023-02-11T14:48:52.233Z,7.34
2023-02-11T14:50:33.741Z,7.38
2023-02-11T14:52:34.440Z,7.17
2023-02-11T14:54:15.233Z,7.02
2023-02-11T14:55:54.635Z,7.13
2023-02-11T14:57:27.753Z,7.17
2023-02-11T14:58:59.472Z,7.20
2023-02-11T15:00:31.153Z,7.28
2023-02-11T15:02:03.679Z,7.29
2023-02-11T15:03:39.966Z,7.32
2023-02-11T15:05:22.521Z,7.16
2023-02-11T15:06:55.787Z,6.97
2023-02-11T15:08:28.639Z,6.85
2023-02-11T15:10:00.429Z,6.94
2023-02-11T15:11:39.123Z,6.90
2023-02-11T15:13:21.644Z,7.05
2023-02-11T15:14:56.246Z,6.95
2023-02-11T15:16:28.962Z,6.79
2023-02-11T15:18:02.789Z,6.86
2023-02-11T15:19:41.033Z,6.91
2023-02-11T15:21:13.334Z,6.99
2023-02-11T15:22:47.393Z,7.18
2023-02-11T15:24:35.031Z,7.38
2023-02-11T15:26:21.917Z,7.44
2023-02-11T15:27:58.746Z,7.49
2023-02-11T15:29:43.019Z,7.57
2023-02-11T15:31:18.255Z,7.50
2023-02-11T15:32:51.815Z,7.47
2023-02-11T15:34:23.536Z,7.37
2023-02-11T15:35:55.485Z,7.30
2023-02-11T15:37:31.766Z,7.31
2023-02-11T15:39:29.044Z,7.10
2023-02-11T15:41:03.608Z,6.93
2023-02-11T15:42:50.682Z,6.88
2023-02-11T15:44:28.478Z,6.91
2023-02-11T15:46:01.821Z,6.78
2023-02-11T15:47:33.509Z,6.79
2023-02-11T15:49:06.570Z,6.73
2023-02-11T15:50:41.012Z,6.68
2023-02-11T15:52:21.550Z,6.68
2023-02-11T15:53:57.033Z,6.66
2023-02-11T15:55:29.902Z,6.57
2023-02-11T15:57:08.422Z,6.59
2023-02-11T15:58:42.331Z,6.49
2023-02-11T16:00:17.677Z,6.32
2023-02-11T16:01:49.858Z,6.35
2023-02-11T16:03:23.381Z,6.44
2023-02-11T16:04:58.023Z,6.35
2023-02-11T16:06:35.513Z,6.21
2023-02-11T16:08:34.618Z,6.17
2023-02-11T16:10:22.697Z,6.12
2023-02-11T16:11:58.783Z,6.26
2023-02-11T16:13:33.687Z,6.13
2023-02-11T16:15:42.366Z,5.94
2023-02-11T16:17:25.415Z,5.88
2023-02-11T16:19:05.763Z,5.85
2023-02-11T16:20:37.837Z,5.90
2023-02-11T16:22:15.916Z,5.94
2023-02-11T16:23:53.659Z,5.81
2023-02-11T16:25:25.324Z,5.72
2023-02-11T16:27:00.129Z,5.59
2023-02-11T16:28:33.033Z,5.79
2023-02-11T16:30:05.619Z,5.71
2023-02-11T16:31:41.035Z,5.47
2023-02-11T16:33:12.762Z,5.43
2023-02-11T16:34:44.887Z,5.32
2023-02-11T16:36:19.366Z,5.41
2023-02-11T16:37:50.971Z,5.18
2023-02-11T16:39:22.962Z,5.14
2023-02-11T16:40:54.547Z,4.94
2023-02-11T16:42:26.214Z,4.87
2023-02-11T16:43:58.920Z,4.76
2023-02-11T16:45:30.579Z,4.70
2023-02-11T16:47:04.439Z,4.68
2023-02-11T16:48:37.648Z,4.56
2023-02-11T16:50:11.628Z,4.44
2023-02-11T16:51:50.202Z,4.37
2023-02-11T16:53:24.177Z,4.33
2023-02-11T16:54:55.942Z,4.19
2023-02-11T16:56:27.620Z,4.12
2023-02-11T16:57:59.509Z,4.00
2023-02-11T16:59:31.275Z,3.88
2023-02-11T17:01:03.178Z,3.81
2023-02-11T17:02:37.257Z,3.77
2023-02-11T17:04:16.775Z,3.67
2023-02-11T17:05:55.430Z,3.88
2023-02-11T17:07:28.708Z,3.92
2023-02-11T17:09:00.547Z,3.80
2023-02-11T17:10:32.535Z,3.90
2023-02-11T17:12:06.999Z,3.84
2023-02-11T17:13:39.557Z,3.74
2023-02-11T17:15:11.304Z,3.63
2023-02-11T17:16:43.839Z,3.64
2023-02-11T17:18:15.549Z,3.46
2023-02-11T17:19:47.920Z,3.34
2023-02-11T17:21:19.560Z,3.21
2023-02-11T17:22:51.558Z,3.12
2023-02-11T17:24:23.511Z,3.11
2023-02-11T17:25:56.491Z,3.19
2023-02-11T17:27:28.118Z,3.30
2023-02-11T17:28:59.855Z,3.19
2023-02-11T17:30:31.719Z,3.08
2023-02-11T17:32:03.605Z,3.08
2023-02-11T17:33:36.315Z,3.03
2023-02-11T17:35:08.105Z,2.96
2023-02-11T17:36:41.419Z,2.99
2023-02-11T17:38:13.102Z,2.92
2023-02-11T17:39:44.943Z,2.81
2023-02-11T17:41:17.045Z,2.70
2023-02-11T17:42:48.695Z,2.65
2023-02-11T17:44:20.515Z,2.83
2023-02-11T17:45:52.795Z,2.88
2023-02-11T17:47:25.121Z,2.93
2023-02-11T17:48:58.888Z,2.79
2023-02-11T17:50:30.575Z,2.67
2023-02-11T17:52:02.613Z,2.72
2023-02-11T17:53:34.301Z,2.72
2023-02-11T17:55:06.486Z,2.69
2023-02-11T17:56:41.927Z,2.52
2023-02-11T17:58:13.566Z,2.44
2023-02-11T17:59:45.325Z,2.45
2023-02-11T18:01:17.012Z,2.51
2023-02-11T18:02:50.909Z,2.51
2023-02-11T18:04:22.651Z,2.44
2023-02-11T18:05:54.565Z,2.45
2023-02-11T18:07:26.848Z,2.35
2023-02-11T18:08:59.827Z,2.26
2023-02-11T18:10:31.824Z,2.35
2023-02-11T18:12:03.542Z,2.46
2023-02-11T18:13:35.266Z,2.46
2023-02-11T18:15:07.121Z,2.46
2023-02-11T18:16:40.363Z,2.34
2023-02-11T18:18:12.476Z,2.24
2023-02-11T18:19:44.185Z,2.28
2023-02-11T18:21:18.405Z,2.29
2023-02-11T18:22:50.093Z,2.34
2023-02-11T18:24:21.830Z,2.39
2023-02-11T18:25:54.109Z,2.45
2023-02-11T18:27:25.930Z,2.48
2023-02-11T18:29:00.049Z,2.53
2023-02-11T18:30:34.710Z,2.56
2023-02-11T18:32:06.600Z,2.57
2023-02-11T18:33:40.176Z,2.56
2023-02-11T18:35:15.875Z,2.56
2023-02-11T18:36:48.895Z,2.55
2023-02-11T18:38:22.243Z,2.55
2023-02-11T18:39:53.901Z,2.57
2023-02-11T18:41:25.500Z,2.61
2023-02-11T18:42:57.154Z,2.62
2023-02-11T18:44:29.182Z,2.61
2023-02-11T18:46:02.336Z,2.62
2023-02-11T18:47:34.044Z,2.62
2023-02-11T18:49:06.347Z,2.60
2023-02-11T18:50:40.748Z,2.60
2023-02-11T18:52:12.375Z,2.64
2023-02-11T18:53:44.089Z,2.73
2023-02-11T18:55:16.322Z,2.71
2023-02-11T18:56:47.958Z,2.71
2023-02-11T18:58:21.184Z,2.61
2023-02-11T18:59:52.847Z,2.51
2023-02-11T19:01:27.366Z,2.47
2023-02-11T19:02:59.469Z,2.44
2023-02-11T19:04:31.158Z,2.49
2023-02-11T19:06:02.917Z,2.54
2023-02-11T19:07:34.553Z,2.60
2023-02-11T19:09:14.597Z,2.57
2023-02-11T19:10:47.952Z,2.53
2023-02-11T19:12:19.714Z,2.58
2023-02-11T19:13:51.873Z,2.63
2023-02-11T19:15:23.510Z,2.84
2023-02-11T19:16:58.002Z,2.89
2023-02-11T19:18:29.714Z,2.90
2023-02-11T19:20:01.374Z,2.79
2023-02-11T19:21:33.832Z,2.80
2023-02-11T19:23:05.492Z,2.89
2023-02-11T19:24:37.958Z,2.86
2023-02-11T19:26:09.555Z,2.77
2023-02-11T19:27:41.861Z,2.86
2023-02-11T19:29:13.706Z,3.03
2023-02-11T19:30:45.496Z,2.93
2023-02-11T19:32:17.113Z,2.91
2023-02-11T19:33:48.741Z,2.90
2023-02-11T19:35:20.333Z,2.74
2023-02-11T19:36:52.008Z,2.58
2023-02-11T19:38:23.653Z,2.49
2023-02-11T19:39:55.329Z,2.57
2023-02-11T19:41:28.073Z,2.55
2023-02-11T19:42:59.781Z,2.52
2023-02-11T19:44:31.541Z,2.44
2023-02-11T19:46:04.612Z,2.50
2023-02-11T19:47:36.722Z,2.46
2023-02-11T19:49:09.937Z,2.44
2023-02-11T19:50:41.565Z,2.44
2023-02-11T19:52:13.150Z,2.49
2023-02-11T19:53:45.333Z,2.51
2023-02-11T19:55:16.981Z,2.47
2023-02-11T19:56:49.111Z,2.46
2023-02-11T19:58:20.833Z,2.48
2023-02-11T19:59:54.862Z,2.43
2023-02-11T20:01:27.180Z,2.44
2023-02-11T20:02:59.095Z,2.45
2023-02-11T20:04:32.262Z,2.49
2023-02-11T20:06:09.436Z,2.47
2023-02-11T20:07:41.040Z,2.55
2023-02-11T20:09:14.838Z,2.46
2023-02-11T20:10:46.503Z,2.46
2023-02-11T20:12:18.138Z,2.33
2023-02-11T20:13:49.826Z,2.30
2023-02-11T20:15:21.622Z,2.38
2023-02-11T20:16:53.255Z,2.32
2023-02-11T20:18:24.834Z,2.30
2023-02-11T20:19:56.396Z,2.25
2023-02-11T20:21:30.809Z,2.25
2023-02-11T20:23:02.791Z,2.24
2023-02-11T20:24:34.451Z,2.28
2023-02-11T20:26:11.102Z,2.25
2023-02-11T20:27:43.059Z,2.29
2023-02-11T20:29:17.039Z,2.15
2023-02-11T20:30:57.177Z,2.19
2023-02-11T20:32:32.763Z,2.12
2023-02-11T20:34:04.625Z,2.20
2023-02-11T20:35:36.443Z,2.22
2023-02-11T20:37:08.889Z,2.20
2023-02-11T20:38:41.435Z,2.30
2023-02-11T20:40:13.319Z,2.28
2023-02-11T20:41:46.332Z,2.32
2023-02-11T20:43:19.152Z,2.29
2023-02-11T20:44:51.178Z,2.23
2023-02-11T20:46:28.202Z,2.14
2023-02-11T20:48:03.711Z,2.21
2023-02-11T20:49:35.369Z,2.16
2023-02-11T20:51:10.778Z,2.13
2023-02-11T20:52:42.505Z,2.11
2023-02-11T20:54:17.793Z,2.08
2023-02-11T20:55:49.668Z,2.01
2023-02-11T20:57:21.430Z,1.97
2023-02-11T20:58:53.576Z,1.95
2023-02-11T21:00:25.461Z,1.96
2023-02-11T21:01:58.903Z,2.10
2023-02-11T21:03:30.678Z,1.96